Time;durP1;ratioP1;P1;durP2;ratioP2;P2;SDS_P1;SDS_P2;PMS_P1;PMS_P2;Temp;Humidity;BMP_temperature;BMP_pressure;BME280_temperature;BME280_humidity;BME280_pressure;Samples;Min_cycle;Max_cycle;Signal;HPM_P1;HPM_P2
2020/12/09 00:02:18;;;;;;;42.90;25.63;;;6.40;58.10;;;;;;5037861;28;20379;-75
2020/12/09 00:04:44;;;;;;;46.85;25.55;;;6.30;58.50;;;;;;5055446;28;20448;-74
2020/12/09 00:07:09;;;;;;;42.80;26.52;;;6.10;58.80;;;;;;5049621;28;20457;-75
2020/12/09 00:09:35;;;;;;;44.20;26.33;;;5.90;62.30;;;;;;5054440;28;20428;-74
2020/12/09 00:12:00;;;;;;;44.17;26.90;;;5.70;64.30;;;;;;5052295;28;20448;-75
2020/12/09 00:14:27;;;;;;;45.30;27.27;;;5.90;63.50;;;;;;5050665;28;20408;-74
2020/12/09 00:16:53;;;;;;;45.58;27.20;;;5.80;63.30;;;;;;5050953;28;20790;-74
2020/12/09 00:19:19;;;;;;;49.87;28.00;;;5.70;65.30;;;;;;5049389;28;20548;-74
2020/12/09 00:21:44;;;;;;;47.67;27.25;;;5.70;65.30;;;;;;5050790;28;20382;-75
2020/12/09 00:24:10;;;;;;;46.40;27.27;;;5.70;66.40;;;;;;5050365;28;20389;-73
2020/12/09 00:26:36;;;;;;;45.73;28.03;;;5.60;66.20;;;;;;5050502;28;20906;-74
2020/12/09 00:29:03;;;;;;;44.15;26.90;;;5.70;64.90;;;;;;5049229;28;20863;-74
2020/12/09 00:31:31;;;;;;;41.92;25.70;;;5.70;63.70;;;;;;5050478;28;20421;-74
2020/12/09 00:33:57;;;;;;;44.83;26.77;;;5.60;64.80;;;;;;5043858;28;20391;-74
2020/12/09 00:36:23;;;;;;;41.60;25.95;;;5.60;63.70;;;;;;5030556;28;20869;-73
2020/12/09 00:38:50;;;;;;;40.25;25.15;;;5.60;63.90;;;;;;5030483;28;20391;-74
2020/12/09 00:41:20;;;;;;;42.97;26.20;;;5.60;62.60;;;;;;5030613;28;20387;-74
2020/12/09 00:43:46;;;;;;;41.90;25.77;;;5.60;63.90;;;;;;5030148;28;20417;-74
2020/12/09 00:46:20;;;;;;;41.22;25.52;;;5.60;64.60;;;;;;5030168;28;20411;-74
2020/12/09 00:48:45;;;;;;;42.13;25.08;;;5.60;64.20;;;;;;5030494;28;20482;-73
2020/12/09 00:51:15;;;;;;;42.63;24.98;;;5.80;65.10;;;;;;5030245;28;20474;-73
2020/12/09 00:53:41;;;;;;;39.97;24.77;;;6.20;59.60;;;;;;5030385;28;20387;-73
2020/12/09 00:56:08;;;;;;;41.58;25.38;;;6.20;58.60;;;;;;5030238;28;20388;-73
2020/12/09 00:58:34;;;;;;;41.85;24.65;;;5.90;59.80;;;;;;5030435;28;20477;-73
2020/12/09 01:00:59;;;;;;;44.50;26.20;;;5.80;60.30;;;;;;5030449;28;20741;-74
2020/12/09 01:03:25;;;;;;;44.80;25.40;;;5.70;61.10;;;;;;5030242;28;20730;-73
2020/12/09 01:05:51;;;;;;;41.40;26.25;;;5.70;61.50;;;;;;5030168;28;20454;-73
2020/12/09 01:08:16;;;;;;;46.05;27.33;;;5.60;62.40;;;;;;5045779;28;20452;-72
2020/12/09 01:10:42;;;;;;;46.03;26.47;;;5.60;61.60;;;;;;5049842;28;20469;-73
2020/12/09 01:13:07;;;;;;;45.93;27.83;;;5.60;61.20;;;;;;5049614;28;21093;-74
2020/12/09 01:15:33;;;;;;;48.33;28.87;;;5.60;61.40;;;;;;5049767;28;20378;-71
2020/12/09 01:17:58;;;;;;;48.73;28.77;;;5.50;62.70;;;;;;5049438;28;20385;-75
2020/12/09 01:20:24;;;;;;;48.17;28.20;;;5.90;62.20;;;;;;5050034;28;20384;-73
2020/12/09 01:22:49;;;;;;;49.97;29.33;;;5.70;61.50;;;;;;5049517;28;20389;-75
2020/12/09 01:25:15;;;;;;;53.00;28.90;;;5.70;63.30;;;;;;5049848;28;20374;-74
2020/12/09 01:27:40;;;;;;;49.60;28.27;;;6.00;61.60;;;;;;5049708;28;20405;-74
2020/12/09 01:30:06;;;;;;;50.60;28.40;;;6.10;59.70;;;;;;5049448;28;20874;-75
2020/12/09 01:32:31;;;;;;;50.80;29.40;;;6.00;59.10;;;;;;5049868;28;20385;-75
2020/12/09 01:34:57;;;;;;;52.20;30.87;;;5.80;61.10;;;;;;5034650;28;20391;-75
2020/12/09 01:37:23;;;;;;;55.73;30.77;;;5.50;64.20;;;;;;5029459;28;20745;-73
2020/12/09 01:39:48;;;;;;;51.97;29.88;;;5.40;65.70;;;;;;5029871;28;20477;-72
2020/12/09 01:42:14;;;;;;;53.53;30.52;;;5.40;65.50;;;;;;5030265;28;20426;-75
2020/12/09 01:44:39;;;;;;;51.00;30.40;;;5.40;65.40;;;;;;5035200;28;20393;-73
2020/12/09 01:47:05;;;;;;;46.30;28.27;;;5.40;66.10;;;;;;5035893;28;20410;-74
2020/12/09 01:49:35;;;;;;;52.42;30.35;;;5.40;68.00;;;;;;5035708;28;20394;-74
2020/12/09 01:52:04;;;;;;;51.58;30.70;;;5.50;67.30;;;;;;5036046;28;20898;-74
2020/12/09 01:54:31;;;;;;;51.60;29.80;;;5.40;68.00;;;;;;5035993;28;20472;-74
2020/12/09 01:57:14;;;;;;;54.75;31.02;;;5.50;68.40;;;;;;5038273;28;20387;-74
2020/12/09 01:59:40;;;;;;;50.55;28.95;;;5.50;67.40;;;;;;5037141;28;20391;-74
2020/12/09 02:02:07;;;;;;;47.25;28.88;;;5.50;67.00;;;;;;5035980;28;20474;-74
2020/12/09 02:04:37;;;;;;;47.53;27.75;;;5.50;66.60;;;;;;5039282;28;20415;-74
2020/12/09 02:07:03;;;;;;;46.42;27.65;;;5.80;64.50;;;;;;5045516;28;20488;-74
2020/12/09 02:09:28;;;;;;;45.03;27.90;;;5.90;64.80;;;;;;5060692;28;20421;-73
2020/12/09 02:11:55;;;;;;;46.77;27.30;;;5.80;65.30;;;;;;5059892;28;20392;-74
2020/12/09 02:14:21;;;;;;;49.15;28.98;;;5.80;65.90;;;;;;5062594;28;20403;-74
2020/12/09 02:16:54;;;;;;;49.65;29.48;;;5.80;65.00;;;;;;5063454;28;20389;-74
2020/12/09 02:19:20;;;;;;;49.67;28.52;;;5.70;67.50;;;;;;5058870;28;20978;-74
2020/12/09 02:21:46;;;;;;;50.30;29.83;;;5.60;68.80;;;;;;5060597;28;20469;-74
2020/12/09 02:24:12;;;;;;;54.33;31.02;;;5.40;71.10;;;;;;5059933;28;20401;-74
2020/12/09 02:26:42;;;;;;;53.90;29.98;;;5.20;72.90;;;;;;5059499;28;20417;-74
2020/12/09 02:29:08;;;;;;;47.80;29.92;;;5.20;74.30;;;;;;5059531;28;20624;-74
2020/12/09 02:31:33;;;;;;;47.10;28.80;;;5.30;73.10;;;;;;5058207;28;20552;-74
2020/12/09 02:33:59;;;;;;;50.93;29.30;;;5.30;70.80;;;;;;5046236;28;20399;-75
2020/12/09 02:36:24;;;;;;;45.80;27.43;;;5.50;69.30;;;;;;5033348;28;20394;-75
2020/12/09 02:38:51;;;;;;;45.90;28.17;;;5.50;67.80;;;;;;5033102;28;20398;-73
2020/12/09 02:41:16;;;;;;;50.65;29.60;;;5.40;68.70;;;;;;5032950;28;20776;-74
2020/12/09 02:43:42;;;;;;;50.43;28.50;;;5.30;69.80;;;;;;5032939;28;20471;-74
2020/12/09 02:46:07;;;;;;;53.33;30.13;;;5.30;70.00;;;;;;5032780;28;20498;-75
2020/12/09 02:48:33;;;;;;;47.30;28.00;;;5.40;69.30;;;;;;5033287;28;20470;-74
2020/12/09 02:50:58;;;;;;;51.53;30.23;;;5.30;69.40;;;;;;5033078;28;20441;-72
2020/12/09 02:53:24;;;;;;;52.77;31.13;;;5.30;70.70;;;;;;5032924;28;20387;-75
2020/12/09 02:55:49;;;;;;;54.70;30.33;;;5.20;70.80;;;;;;5033130;28;20391;-74
2020/12/09 02:58:15;;;;;;;55.28;30.63;;;5.20;72.20;;;;;;5032595;28;20378;-74
2020/12/09 03:00:41;;;;;;;56.50;32.10;;;5.20;72.30;;;;;;5032994;28;20458;-74
2020/12/09 03:03:06;;;;;;;57.30;31.70;;;5.20;70.60;;;;;;5041934;28;20947;-72
2020/12/09 03:05:32;;;;;;;57.25;32.88;;;5.20;72.00;;;;;;5039341;28;20386;-74
2020/12/09 03:07:57;;;;;;;56.60;32.17;;;5.10;71.80;;;;;;5043731;28;20866;-73
2020/12/09 03:10:23;;;;;;;61.50;32.53;;;5.00;73.20;;;;;;5058910;28;20420;-73
2020/12/09 03:12:49;;;;;;;57.67;32.93;;;5.10;73.00;;;;;;5059522;28;20377;-75
2020/12/09 03:15:14;;;;;;;58.70;32.90;;;5.10;73.20;;;;;;5060307;28;20385;-73
2020/12/09 03:17:40;;;;;;;56.77;33.77;;;5.10;72.00;;;;;;5058585;28;20382;-74
2020/12/09 03:20:05;;;;;;;57.40;32.73;;;5.00;72.30;;;;;;5057801;28;20538;-73
2020/12/09 03:22:31;;;;;;;59.20;33.50;;;5.10;70.70;;;;;;5053091;28;20388;-74
2020/12/09 03:24:56;;;;;;;57.73;33.33;;;5.10;70.20;;;;;;5051622;28;20741;-74
2020/12/09 03:27:22;;;;;;;58.70;33.30;;;5.20;69.00;;;;;;5051572;28;20471;-73
2020/12/09 03:29:47;;;;;;;61.05;33.65;;;5.20;68.40;;;;;;5051541;28;20385;-74
2020/12/09 03:32:13;;;;;;;62.58;33.75;;;5.10;68.60;;;;;;5051555;28;20404;-73
2020/12/09 03:34:39;;;;;;;57.47;34.08;;;5.10;69.40;;;;;;5039155;28;20407;-74
2020/12/09 03:37:04;;;;;;;63.13;34.40;;;5.10;70.40;;;;;;5031340;28;20406;-73
2020/12/09 03:39:30;;;;;;;60.63;34.42;;;4.90;71.80;;;;;;5031544;28;20402;-74
2020/12/09 03:41:55;;;;;;;61.80;34.23;;;5.10;73.80;;;;;;5031657;28;20764;-72
2020/12/09 03:44:21;;;;;;;60.10;34.20;;;5.20;69.40;;;;;;5031229;28;20494;-73
2020/12/09 03:46:46;;;;;;;57.10;33.33;;;5.10;70.90;;;;;;5046848;28;20403;-75
2020/12/09 03:49:12;;;;;;;58.80;33.90;;;5.00;72.60;;;;;;5031454;28;20398;-75
2020/12/09 03:51:37;;;;;;;64.30;35.20;;;5.10;72.20;;;;;;5031400;28;20386;-73
2020/12/09 03:54:03;;;;;;;61.40;34.47;;;5.10;73.10;;;;;;5031030;28;20419;-74
2020/12/09 03:56:29;;;;;;;59.17;34.83;;;5.10;73.30;;;;;;5031407;28;20890;-74
2020/12/09 03:58:55;;;;;;;58.78;34.20;;;5.00;73.10;;;;;;5031325;28;20574;-75
2020/12/09 04:01:20;;;;;;;59.47;34.53;;;5.00;73.10;;;;;;5031079;28;20553;-76
2020/12/09 04:03:46;;;;;;;59.37;34.40;;;5.00;73.30;;;;;;5031027;28;20421;-74
2020/12/09 04:06:11;;;;;;;59.87;34.20;;;5.00;72.30;;;;;;5030929;28;20667;-74
2020/12/09 04:08:37;;;;;;;58.00;33.30;;;5.00;71.20;;;;;;5041182;28;20468;-74
2020/12/09 04:11:02;;;;;;;58.73;33.47;;;5.10;70.10;;;;;;5051582;28;20381;-77
2020/12/09 04:13:28;;;;;;;62.77;33.20;;;5.20;68.20;;;;;;5051404;28;20380;-74
2020/12/09 04:15:54;;;;;;;57.13;33.17;;;5.10;68.20;;;;;;5051272;28;20791;-74
2020/12/09 04:18:19;;;;;;;58.67;33.72;;;5.20;67.90;;;;;;5050476;28;20417;-73
2020/12/09 04:20:45;;;;;;;57.95;33.90;;;5.10;68.80;;;;;;5051029;28;20388;-74
2020/12/09 04:23:10;;;;;;;63.72;34.85;;;5.20;67.80;;;;;;5051245;28;20420;-74
2020/12/09 04:25:36;;;;;;;57.90;32.90;;;5.10;67.00;;;;;;5051841;28;20393;-77
2020/12/09 04:28:01;;;;;;;59.28;34.67;;;5.10;68.60;;;;;;5051600;28;20388;-73
2020/12/09 04:30:27;;;;;;;60.17;33.15;;;5.10;70.40;;;;;;5051485;28;20401;-74
2020/12/09 04:32:52;;;;;;;58.65;34.55;;;5.00;70.80;;;;;;5051169;28;20385;-75
2020/12/09 04:35:18;;;;;;;60.17;34.75;;;5.10;70.00;;;;;;5051475;28;20398;-75
2020/12/09 04:37:45;;;;;;;59.30;34.63;;;5.10;70.70;;;;;;5052095;28;20458;-73
2020/12/09 04:40:11;;;;;;;65.93;36.38;;;5.00;70.90;;;;;;5052504;28;20485;-74
2020/12/09 04:42:37;;;;;;;64.67;37.10;;;5.10;71.10;;;;;;5053189;28;20832;-75
2020/12/09 04:45:03;;;;;;;62.27;36.70;;;5.00;71.10;;;;;;5051747;28;20464;-75
2020/12/09 04:47:41;;;;;;;58.88;34.70;;;5.10;68.80;;;;;;5052228;28;20456;-74
2020/12/09 04:50:12;;;;;;;64.00;35.50;;;5.00;69.30;;;;;;5052621;28;20420;-73
2020/12/09 04:52:42;;;;;;;65.77;37.43;;;4.90;71.80;;;;;;5052540;28;20992;-73
2020/12/09 04:55:11;;;;;;;62.47;36.03;;;4.90;71.60;;;;;;5052369;28;20886;-74
2020/12/09 04:57:41;;;;;;;67.65;36.92;;;4.90;71.70;;;;;;5052434;28;20388;-73
2020/12/09 05:00:13;;;;;;;63.38;37.20;;;4.90;71.10;;;;;;5051739;28;20540;-75
2020/12/09 05:02:43;;;;;;;66.82;37.47;;;4.90;69.60;;;;;;5054526;28;20381;-73
2020/12/09 05:05:11;;;;;;;66.78;37.35;;;4.90;69.00;;;;;;5058041;28;20416;-75
2020/12/09 05:07:37;;;;;;;67.65;37.17;;;4.90;68.50;;;;;;5049314;28;20896;-74
2020/12/09 05:10:12;;;;;;;66.38;37.70;;;5.00;67.70;;;;;;5058103;28;20416;-76
2020/12/09 05:12:44;;;;;;;69.70;37.70;;;4.90;68.20;;;;;;5057621;28;20415;-74
2020/12/09 05:15:19;;;;;;;71.43;38.87;;;4.80;70.60;;;;;;5057257;28;20377;-74
2020/12/09 05:18:04;;;;;;;74.93;40.10;;;4.70;71.30;;;;;;5056841;28;20392;-74
2020/12/09 05:20:36;;;;;;;69.47;38.08;;;4.70;72.10;;;;;;5058125;28;20401;-74
2020/12/09 05:23:07;;;;;;;63.53;37.10;;;4.60;71.30;;;;;;5057936;28;20719;-74
2020/12/09 05:25:33;;;;;;;70.40;38.15;;;4.70;70.20;;;;;;5057824;28;20439;-73
2020/12/09 05:27:59;;;;;;;71.90;38.73;;;4.70;70.30;;;;;;5052047;28;20414;-74
2020/12/09 05:30:44;;;;;;;65.53;38.05;;;4.80;69.70;;;;;;5050825;28;20885;-75
2020/12/09 05:33:16;;;;;;;70.33;38.47;;;4.70;70.30;;;;;;5050945;28;20389;-75
2020/12/09 05:35:41;;;;;;;69.80;38.70;;;4.70;71.30;;;;;;5029496;28;20902;-74
2020/12/09 05:38:10;;;;;;;68.28;38.92;;;4.70;71.50;;;;;;5031956;28;20382;-75
2020/12/09 05:40:36;;;;;;;68.18;39.58;;;4.80;68.80;;;;;;5037360;28;20911;-75
2020/12/09 05:43:01;;;;;;;68.35;38.47;;;4.80;68.00;;;;;;5038094;28;20383;-74
2020/12/09 05:45:27;;;;;;;76.00;40.00;;;4.70;68.80;;;;;;5038218;28;20386;-74
2020/12/09 05:48:11;;;;;;;67.90;38.60;;;4.70;69.30;;;;;;5038173;28;20425;-73
2020/12/09 05:50:58;;;;;;;74.05;40.42;;;4.60;69.20;;;;;;5034386;28;20387;-73
2020/12/09 05:53:32;;;;;;;73.47;40.05;;;4.60;70.50;;;;;;5035739;28;20792;-75
2020/12/09 05:56:13;;;;;;;82.57;41.90;;;4.60;70.30;;;;;;5035166;28;20389;-75
2020/12/09 05:58:59;;;;;;;78.97;42.65;;;4.60;70.20;;;;;;5034928;28;20379;-73
2020/12/09 06:01:28;;;;;;;81.17;42.13;;;4.60;69.50;;;;;;5035960;28;20395;-74
2020/12/09 06:03:57;;;;;;;82.25;43.80;;;4.50;70.00;;;;;;5034050;28;20445;-74
2020/12/09 06:06:27;;;;;;;80.20;43.43;;;4.40;70.80;;;;;;5032686;28;20411;-75
2020/12/09 06:08:55;;;;;;;86.45;43.95;;;4.40;69.90;;;;;;5042483;28;20812;-73
2020/12/09 06:11:26;;;;;;;76.22;42.20;;;4.50;68.00;;;;;;5050095;28;20381;-72
2020/12/09 06:13:52;;;;;;;85.15;45.60;;;4.60;65.70;;;;;;5049868;28;20389;-72
2020/12/09 06:16:19;;;;;;;82.60;43.90;;;4.60;65.90;;;;;;5050149;28;20515;-72
2020/12/09 06:18:47;;;;;;;85.78;45.42;;;4.60;65.60;;;;;;5048542;28;20397;-72
2020/12/09 06:21:12;;;;;;;90.05;45.13;;;4.50;66.40;;;;;;5047084;28;20456;-72
2020/12/09 06:23:39;;;;;;;86.53;44.25;;;4.50;68.10;;;;;;5046969;28;20416;-72
2020/12/09 06:26:06;;;;;;;94.70;44.73;;;4.40;68.70;;;;;;5048087;28;20412;-73
2020/12/09 06:28:34;;;;;;;85.20;43.00;;;4.40;67.00;;;;;;5047887;28;20400;-74
2020/12/09 06:31:12;;;;;;;86.78;44.45;;;4.50;66.50;;;;;;5048462;28;20381;-72
2020/12/09 06:33:46;;;;;;;85.25;45.30;;;4.40;67.50;;;;;;5048339;28;20378;-72
2020/12/09 06:36:29;;;;;;;89.80;45.70;;;4.30;68.40;;;;;;5048032;28;20882;-73
2020/12/09 06:39:17;;;;;;;93.65;45.95;;;4.30;67.50;;;;;;5047852;28;20902;-72
2020/12/09 06:41:56;;;;;;;100.28;47.30;;;4.40;65.20;;;;;;5048135;28;20743;-73
2020/12/09 06:44:28;;;;;;;100.25;47.10;;;4.20;66.10;;;;;;5051476;28;20434;-72
2020/12/09 06:46:53;;;;;;;95.53;46.10;;;4.30;66.20;;;;;;5051494;28;20497;-72
2020/12/09 06:49:31;;;;;;;98.93;48.40;;;4.20;67.40;;;;;;5051128;28;20382;-72
2020/12/09 06:51:59;;;;;;;99.65;49.00;;;4.20;66.50;;;;;;5052017;28;20377;-73
2020/12/09 06:54:45;;;;;;;96.20;47.58;;;4.00;68.60;;;;;;5051434;28;20382;-73
2020/12/09 06:57:35;;;;;;;94.50;48.03;;;3.90;70.60;;;;;;5050490;28;20393;-73
2020/12/09 07:00:10;;;;;;;95.47;46.88;;;3.90;70.60;;;;;;5051540;28;20460;-72
2020/12/09 07:02:36;;;;;;;101.65;48.45;;;3.90;71.70;;;;;;5050720;28;20389;-72
2020/12/09 07:05:02;;;;;;;106.75;51.75;;;3.90;72.50;;;;;;5051371;28;20394;-72
2020/12/09 07:07:40;;;;;;;103.85;49.25;;;3.90;72.20;;;;;;5042565;28;20402;-71
2020/12/09 07:10:18;;;;;;;103.53;47.97;;;3.80;72.40;;;;;;5052031;28;20385;-73
2020/12/09 07:12:45;;;;;;;96.22;47.15;;;3.90;72.50;;;;;;5052806;28;20785;-74
2020/12/09 07:15:11;;;;;;;98.23;47.77;;;4.00;71.60;;;;;;5054062;28;20443;-75
2020/12/09 07:17:36;;;;;;;96.20;46.97;;;4.00;70.90;;;;;;5053953;28;20389;-74
2020/12/09 07:20:03;;;;;;;105.20;49.00;;;4.00;71.60;;;;;;5055566;28;20397;-70
2020/12/09 07:22:29;;;;;;;101.90;49.95;;;3.90;72.00;;;;;;5054140;28;20393;-74
2020/12/09 07:24:55;;;;;;;94.60;45.27;;;3.90;71.90;;;;;;5055064;28;20385;-74
2020/12/09 07:27:24;;;;;;;94.43;48.22;;;4.10;68.70;;;;;;5056188;28;20397;-73
2020/12/09 07:29:53;;;;;;;96.95;45.63;;;4.00;69.30;;;;;;5056253;28;20431;-74
2020/12/09 07:32:21;;;;;;;82.25;43.88;;;3.90;70.80;;;;;;5055241;28;20389;-74
2020/12/09 07:35:01;;;;;;;77.95;41.60;;;4.00;69.80;;;;;;5049087;28;20402;-74
2020/12/09 07:37:29;;;;;;;89.20;45.30;;;4.00;68.60;;;;;;5033958;28;20405;-75
2020/12/09 07:39:57;;;;;;;90.88;44.60;;;3.90;69.30;;;;;;5034390;28;20438;-75
2020/12/09 07:42:23;;;;;;;92.90;45.23;;;3.70;70.40;;;;;;5034988;28;20694;-74
2020/12/09 07:44:51;;;;;;;87.80;45.58;;;3.60;70.90;;;;;;5034673;28;20402;-73
2020/12/09 07:47:35;;;;;;;93.18;46.63;;;3.60;72.00;;;;;;5034591;28;20450;-74
2020/12/09 07:50:03;;;;;;;90.40;45.17;;;3.50;72.70;;;;;;5033898;28;20403;-74
2020/12/09 07:52:31;;;;;;;89.70;44.60;;;3.70;72.50;;;;;;5034749;28;20434;-74
2020/12/09 07:54:59;;;;;;;88.85;45.13;;;3.60;73.00;;;;;;5043394;28;20447;-75
2020/12/09 07:57:29;;;;;;;93.60;45.00;;;3.60;74.40;;;;;;5049037;28;20451;-73
2020/12/09 07:59:57;;;;;;;89.25;44.30;;;3.50;74.90;;;;;;5038147;28;20423;-74
2020/12/09 08:02:25;;;;;;;91.30;44.78;;;3.70;74.10;;;;;;5031238;28;20401;-75
2020/12/09 08:05:23;;;;;;;79.22;41.92;;;3.60;72.60;;;;;;5031249;28;20841;-74
2020/12/09 08:07:50;;;;;;;84.35;41.22;;;3.60;69.10;;;;;;5043083;28;20948;-75
2020/12/09 08:10:26;;;;;;;75.22;40.75;;;3.60;67.40;;;;;;5048394;28;20848;-74
2020/12/09 08:12:59;;;;;;;79.00;40.65;;;3.70;66.90;;;;;;5035957;28;20385;-72
2020/12/09 08:15:25;;;;;;;76.18;41.35;;;3.60;67.50;;;;;;5043770;28;20425;-74
2020/12/09 08:17:51;;;;;;;79.07;41.47;;;3.50;67.80;;;;;;5038289;28;20389;-73
2020/12/09 08:20:17;;;;;;;80.47;41.43;;;3.70;69.30;;;;;;5049970;28;20775;-75
2020/12/09 08:22:49;;;;;;;78.60;40.65;;;3.90;68.80;;;;;;5029453;28;20875;-75
2020/12/09 08:25:15;;;;;;;83.40;40.38;;;4.00;65.30;;;;;;5032317;28;20395;-74
2020/12/09 08:27:42;;;;;;;81.47;39.50;;;4.00;65.00;;;;;;5031390;28;20410;-75
2020/12/09 08:30:12;;;;;;;87.45;42.80;;;4.00;65.90;;;;;;5031242;28;20391;-75
2020/12/09 08:33:06;;;;;;;75.75;40.30;;;3.80;69.10;;;;;;5032617;28;20383;-72
2020/12/09 08:35:42;;;;;;;81.13;41.20;;;3.80;68.40;;;;;;5034813;28;20407;-75
2020/12/09 08:38:08;;;;;;;78.90;41.65;;;3.80;70.10;;;;;;5037972;28;20409;-75
2020/12/09 08:40:34;;;;;;;85.30;40.40;;;3.70;68.20;;;;;;5032458;28;20403;-73
2020/12/09 08:42:59;;;;;;;76.60;38.27;;;3.80;70.30;;;;;;5031222;28;20402;-75
2020/12/09 08:45:26;;;;;;;78.75;40.05;;;3.80;66.50;;;;;;5030372;28;20877;-75
2020/12/09 08:47:52;;;;;;;85.97;42.20;;;3.70;68.70;;;;;;5043280;28;20409;-75
2020/12/09 08:50:18;;;;;;;88.03;41.77;;;3.80;68.70;;;;;;5033450;28;20405;-75
2020/12/09 08:52:44;;;;;;;78.03;40.40;;;3.70;70.80;;;;;;5032459;28;21937;-75
2020/12/09 08:55:09;;;;;;;73.22;40.17;;;3.70;69.80;;;;;;5030986;28;20387;-74
2020/12/09 08:57:35;;;;;;;69.73;38.57;;;3.50;71.20;;;;;;5029610;28;20403;-74
2020/12/09 09:00:01;;;;;;;65.18;36.40;;;4.20;65.80;;;;;;5034324;28;20429;-76
2020/12/09 09:02:26;;;;;;;67.85;36.97;;;4.50;59.90;;;;;;5029635;28;20399;-73
2020/12/09 09:04:52;;;;;;;66.77;37.90;;;4.40;58.30;;;;;;5029220;28;20437;-74
2020/12/09 09:07:18;;;;;;;76.40;40.80;;;4.10;60.10;;;;;;5036875;28;20409;-74
2020/12/09 09:09:43;;;;;;;72.13;39.87;;;3.90;60.90;;;;;;5037603;28;20447;-75
2020/12/09 09:12:10;;;;;;;63.08;35.75;;;3.90;61.10;;;;;;5029330;28;20387;-75
2020/12/09 09:14:35;;;;;;;65.45;36.40;;;4.00;58.60;;;;;;5028801;28;20398;-74
2020/12/09 09:17:01;;;;;;;69.65;36.70;;;4.00;58.60;;;;;;5030118;28;20899;-73
2020/12/09 09:19:27;;;;;;;63.17;36.23;;;3.90;58.70;;;;;;5047855;28;20485;-74
2020/12/09 09:21:53;;;;;;;61.80;35.00;;;3.90;58.50;;;;;;5041364;28;20407;-73
2020/12/09 09:24:18;;;;;;;71.00;38.60;;;3.90;60.30;;;;;;5048671;28;20389;-74
2020/12/09 09:26:44;;;;;;;63.97;36.30;;;3.90;60.00;;;;;;5041648;28;20422;-75
2020/12/09 09:29:09;;;;;;;62.20;34.95;;;4.00;57.70;;;;;;5028821;28;20399;-73
2020/12/09 09:31:35;;;;;;;62.00;33.72;;;4.20;55.50;;;;;;5032270;28;20406;-73
2020/12/09 09:34:01;;;;;;;61.35;34.15;;;4.30;54.10;;;;;;5035764;28;20378;-75
2020/12/09 09:36:30;;;;;;;74.77;38.60;;;4.20;54.60;;;;;;5048535;28;20420;-74
2020/12/09 09:38:56;;;;;;;69.05;36.90;;;4.20;55.60;;;;;;5048899;28;20389;-73
2020/12/09 09:41:21;;;;;;;68.27;36.20;;;4.10;56.20;;;;;;5028991;28;20439;-73
2020/12/09 09:43:47;;;;;;;63.90;35.50;;;4.10;55.60;;;;;;5028947;28;20390;-72
2020/12/09 09:46:12;;;;;;;62.63;34.57;;;4.40;55.00;;;;;;5030993;28;20418;-72
2020/12/09 09:48:38;;;;;;;63.70;34.33;;;4.70;52.40;;;;;;5029021;28;20673;-74
2020/12/09 09:51:04;;;;;;;61.40;33.33;;;4.70;52.00;;;;;;5028708;28;20861;-73
2020/12/09 09:53:29;;;;;;;65.70;35.40;;;4.90;51.40;;;;;;5028998;28;20379;-73
2020/12/09 09:55:55;;;;;;;63.57;35.57;;;5.00;51.70;;;;;;5028894;28;20533;-74
2020/12/09 09:58:20;;;;;;;63.60;35.90;;;5.10;49.80;;;;;;5028904;28;20391;-74
2020/12/09 10:00:46;;;;;;;64.57;35.77;;;5.20;51.40;;;;;;5034078;28;20395;-71
2020/12/09 10:03:11;;;;;;;67.20;35.37;;;5.20;51.60;;;;;;5028692;28;20398;-73
2020/12/09 10:05:37;;;;;;;58.73;34.07;;;5.50;49.00;;;;;;5027698;28;20387;-74
2020/12/09 10:08:03;;;;;;;63.27;36.40;;;5.60;47.30;;;;;;5033828;28;20498;-72
2020/12/09 10:10:28;;;;;;;61.35;35.70;;;5.50;45.60;;;;;;5038533;28;20402;-71
2020/12/09 10:12:54;;;;;;;62.03;34.08;;;5.60;47.30;;;;;;5028491;28;20822;-71
2020/12/09 10:15:20;;;;;;;61.40;33.67;;;5.80;44.30;;;;;;5028397;28;20391;-71
2020/12/09 10:17:45;;;;;;;61.63;35.15;;;5.80;45.30;;;;;;5030830;28;20386;-71
2020/12/09 10:20:11;;;;;;;62.17;34.47;;;5.70;46.20;;;;;;5038650;28;20432;-71
2020/12/09 10:22:36;;;;;;;62.30;36.40;;;5.90;46.80;;;;;;5052746;28;20491;-71
2020/12/09 10:25:02;;;;;;;62.60;36.40;;;5.90;45.80;;;;;;5046215;28;20445;-70
2020/12/09 10:27:27;;;;;;;73.43;38.83;;;5.90;46.10;;;;;;5032005;28;20489;-71
2020/12/09 10:29:53;;;;;;;71.83;37.37;;;5.80;46.30;;;;;;5031841;28;20494;-72
2020/12/09 10:32:18;;;;;;;66.50;37.47;;;5.80;47.50;;;;;;5031098;28;20425;-71
2020/12/09 10:34:44;;;;;;;66.77;38.27;;;5.80;45.70;;;;;;5043258;28;20381;-73
2020/12/09 10:37:10;;;;;;;68.53;36.57;;;5.90;45.80;;;;;;5032027;28;20478;-73
2020/12/09 10:39:36;;;;;;;59.75;33.38;;;6.00;43.40;;;;;;5032464;28;20394;-73
2020/12/09 10:42:02;;;;;;;65.15;35.35;;;6.00;41.60;;;;;;5036923;28;20821;-74
2020/12/09 10:44:28;;;;;;;63.03;35.78;;;6.10;41.60;;;;;;5035557;28;20448;-74
2020/12/09 10:46:53;;;;;;;61.77;35.23;;;6.00;41.90;;;;;;5031777;28;20415;-75
2020/12/09 10:49:19;;;;;;;122.20;56.37;;;5.90;41.40;;;;;;5031967;28;20398;-74
2020/12/09 10:51:54;;;;;;;73.27;35.13;;;5.90;42.80;;;;;;5032598;28;20387;-73
2020/12/09 10:54:20;;;;;;;62.42;35.88;;;5.80;42.50;;;;;;5031964;28;20884;-72
2020/12/09 10:56:46;;;;;;;71.05;39.40;;;5.70;42.50;;;;;;5032717;28;20399;-75
2020/12/09 10:59:12;;;;;;;64.30;35.72;;;5.70;43.00;;;;;;5038715;28;20402;-76
2020/12/09 11:01:37;;;;;;;64.65;35.33;;;5.70;43.40;;;;;;5041075;28;20401;-75
2020/12/09 11:04:04;;;;;;;69.07;37.00;;;5.90;43.10;;;;;;5051361;28;20413;-75
2020/12/09 11:06:32;;;;;;;65.13;35.60;;;5.90;42.90;;;;;;5045388;28;20421;-74
2020/12/09 11:08:59;;;;;;;64.63;37.33;;;5.80;43.30;;;;;;5053467;28;20394;-75
2020/12/09 11:11:25;;;;;;;72.70;38.57;;;5.80;43.50;;;;;;5046047;28;20495;-75
2020/12/09 11:13:51;;;;;;;74.20;39.65;;;5.80;44.40;;;;;;5031766;28;20387;-73
2020/12/09 11:16:18;;;;;;;77.95;40.17;;;5.80;43.80;;;;;;5031402;28;20399;-73
2020/12/09 11:18:44;;;;;;;75.15;40.63;;;5.80;44.50;;;;;;5031865;28;20709;-74
2020/12/09 11:21:10;;;;;;;74.00;39.40;;;5.80;44.00;;;;;;5038529;28;20416;-74
2020/12/09 11:23:36;;;;;;;68.50;36.80;;;5.80;44.90;;;;;;5045298;28;20407;-73
2020/12/09 11:26:02;;;;;;;72.03;38.20;;;5.80;44.70;;;;;;5033725;28;20459;-73
2020/12/09 11:28:27;;;;;;;71.72;40.85;;;5.80;43.00;;;;;;5029764;28;20832;-73
2020/12/09 11:30:53;;;;;;;69.40;38.00;;;5.80;44.10;;;;;;5031406;28;20391;-75
2020/12/09 11:33:19;;;;;;;80.88;42.03;;;5.80;44.30;;;;;;5031658;28;20449;-75
2020/12/09 11:35:44;;;;;;;72.75;40.75;;;6.00;44.70;;;;;;5051436;28;20412;-76
2020/12/09 11:38:10;;;;;;;74.60;41.00;;;6.10;44.70;;;;;;5044651;28;20391;-73
2020/12/09 11:40:35;;;;;;;76.10;41.70;;;6.40;44.40;;;;;;5024544;28;20762;-74
2020/12/09 11:43:01;;;;;;;74.53;41.50;;;6.40;42.50;;;;;;5011521;28;20479;-75
2020/12/09 11:45:26;;;;;;;72.50;39.27;;;6.40;41.00;;;;;;5011483;28;20407;-74
2020/12/09 11:47:52;;;;;;;81.77;40.77;;;6.50;40.40;;;;;;5011213;28;20435;-74
2020/12/09 11:50:17;;;;;;;69.27;38.80;;;6.60;41.20;;;;;;5009985;28;20759;-74
2020/12/09 11:52:43;;;;;;;71.23;39.10;;;6.60;40.90;;;;;;5011185;28;20766;-74
2020/12/09 11:55:11;;;;;;;77.70;40.20;;;6.70;40.80;;;;;;5011028;28;20406;-75
2020/12/09 11:57:36;;;;;;;73.57;40.20;;;6.70;39.90;;;;;;5009938;28;20754;-73
2020/12/09 12:00:03;;;;;;;86.50;43.30;;;6.70;39.90;;;;;;5011340;28;20389;-73
2020/12/09 12:02:29;;;;;;;96.53;48.72;;;6.90;40.90;;;;;;5011099;28;20389;-75
2020/12/09 12:04:56;;;;;;;95.00;47.30;;;6.90;40.20;;;;;;5028726;28;20421;-74
2020/12/09 12:07:22;;;;;;;96.18;48.05;;;6.90;40.60;;;;;;5030218;28;20407;-74
2020/12/09 12:09:47;;;;;;;94.30;46.40;;;6.80;41.50;;;;;;5019479;28;20397;-73
2020/12/09 12:12:13;;;;;;;91.32;45.78;;;6.80;41.40;;;;;;5010684;28;20403;-73
2020/12/09 12:14:39;;;;;;;88.20;45.93;;;6.70;41.00;;;;;;5010475;28;20397;-74
2020/12/09 12:17:08;;;;;;;100.00;47.15;;;6.50;42.70;;;;;;5027809;28;20411;-74
2020/12/09 12:19:34;;;;;;;90.50;45.78;;;6.20;44.90;;;;;;5011459;28;20405;-74
2020/12/09 12:22:00;;;;;;;102.25;46.90;;;6.10;45.10;;;;;;5016875;28;20868;-75
2020/12/09 12:24:25;;;;;;;98.10;47.95;;;5.90;47.40;;;;;;5017552;28;20396;-73
2020/12/09 12:26:51;;;;;;;93.70;48.75;;;5.80;48.00;;;;;;5013564;28;20407;-74
2020/12/09 12:29:16;;;;;;;95.65;47.17;;;5.70;49.60;;;;;;5012303;28;20767;-75
2020/12/09 12:31:42;;;;;;;94.05;48.30;;;5.60;49.40;;;;;;5030449;28;20748;-75
2020/12/09 12:34:07;;;;;;;102.45;48.95;;;5.80;49.20;;;;;;5026285;28;20397;-74
2020/12/09 12:36:33;;;;;;;99.10;48.83;;;5.60;50.40;;;;;;5012580;28;20420;-75
2020/12/09 12:38:59;;;;;;;97.78;48.30;;;5.50;51.50;;;;;;5016798;28;20400;-74